sensor_id;sensor_type;location;lat;lon;timestamp;P1;durP1;ratioP1;P2;durP2;ratioP2
7965;SDS011;4028;43.272;26.932;2024-01-30T00:00:40;18.00;;;12.27;;
7965;SDS011;4028;43.272;26.932;2024-01-30T00:03:06;15.43;;;10.93;;
7965;SDS011;4028;43.272;26.932;2024-01-30T00:05:31;15.27;;;12.03;;
7965;SDS011;4028;43.272;26.932;2024-01-30T00:07:57;16.47;;;12.47;;
7965;SDS011;4028;43.272;26.932;2024-01-30T00:10:22;16.27;;;12.10;;
7965;SDS011;4028;43.272;26.932;2024-01-30T00:12:48;19.50;;;11.90;;
7965;SDS011;4028;43.272;26.932;2024-01-30T00:15:13;20.70;;;12.70;;
7965;SDS011;4028;43.272;26.932;2024-01-30T00:17:39;17.43;;;11.27;;
7965;SDS011;4028;43.272;26.932;2024-01-30T00:20:04;16.83;;;12.07;;
7965;SDS011;4028;43.272;26.932;2024-01-30T00:22:33;15.43;;;11.50;;
7965;SDS011;4028;43.272;26.932;2024-01-30T00:24:59;16.97;;;12.23;;
7965;SDS011;4028;43.272;26.932;2024-01-30T00:27:25;17.90;;;12.23;;
7965;SDS011;4028;43.272;26.932;2024-01-30T00:29:51;14.75;;;11.50;;
7965;SDS011;4028;43.272;26.932;2024-01-30T00:32:17;17.70;;;11.90;;
7965;SDS011;4028;43.272;26.932;2024-01-30T00:34:44;19.13;;;12.73;;
7965;SDS011;4028;43.272;26.932;2024-01-30T00:37:09;16.20;;;11.80;;
7965;SDS011;4028;43.272;26.932;2024-01-30T00:39:35;16.17;;;11.40;;
7965;SDS011;4028;43.272;26.932;2024-01-30T00:42:01;17.57;;;12.20;;
7965;SDS011;4028;43.272;26.932;2024-01-30T00:44:26;17.20;;;12.43;;
7965;SDS011;4028;43.272;26.932;2024-01-30T00:46:52;18.50;;;12.90;;
7965;SDS011;4028;43.272;26.932;2024-01-30T00:49:18;16.60;;;11.93;;
7965;SDS011;4028;43.272;26.932;2024-01-30T00:51:44;16.67;;;12.20;;
7965;SDS011;4028;43.272;26.932;2024-01-30T00:54:11;17.13;;;12.27;;
7965;SDS011;4028;43.272;26.932;2024-01-30T00:56:36;16.50;;;12.20;;
7965;SDS011;4028;43.272;26.932;2024-01-30T00:59:02;16.07;;;11.73;;
7965;SDS011;4028;43.272;26.932;2024-01-30T01:01:27;16.17;;;12.50;;
7965;SDS011;4028;43.272;26.932;2024-01-30T01:03:53;17.60;;;13.03;;
7965;SDS011;4028;43.272;26.932;2024-01-30T01:06:18;21.70;;;13.63;;
7965;SDS011;4028;43.272;26.932;2024-01-30T01:08:44;17.83;;;12.83;;
7965;SDS011;4028;43.272;26.932;2024-01-30T01:11:09;19.93;;;13.10;;
7965;SDS011;4028;43.272;26.932;2024-01-30T01:13:34;18.33;;;12.17;;
7965;SDS011;4028;43.272;26.932;2024-01-30T01:16:00;17.97;;;12.20;;
7965;SDS011;4028;43.272;26.932;2024-01-30T01:18:26;16.17;;;12.13;;
7965;SDS011;4028;43.272;26.932;2024-01-30T01:20:52;18.03;;;11.53;;
7965;SDS011;4028;43.272;26.932;2024-01-30T01:23:17;17.83;;;12.23;;
7965;SDS011;4028;43.272;26.932;2024-01-30T01:25:43;17.77;;;12.83;;
7965;SDS011;4028;43.272;26.932;2024-01-30T01:28:09;17.37;;;12.07;;
7965;SDS011;4028;43.272;26.932;2024-01-30T01:30:35;16.13;;;12.07;;
7965;SDS011;4028;43.272;26.932;2024-01-30T01:33:00;17.90;;;12.27;;
7965;SDS011;4028;43.272;26.932;2024-01-30T01:35:27;19.03;;;13.53;;
7965;SDS011;4028;43.272;26.932;2024-01-30T01:37:53;19.00;;;13.10;;
7965;SDS011;4028;43.272;26.932;2024-01-30T01:40:24;19.67;;;13.17;;
7965;SDS011;4028;43.272;26.932;2024-01-30T01:42:50;17.07;;;12.33;;
7965;SDS011;4028;43.272;26.932;2024-01-30T01:45:19;18.30;;;12.97;;
7965;SDS011;4028;43.272;26.932;2024-01-30T01:47:47;18.50;;;12.50;;
7965;SDS011;4028;43.272;26.932;2024-01-30T01:50:15;19.60;;;13.57;;
7965;SDS011;4028;43.272;26.932;2024-01-30T01:52:43;16.57;;;11.57;;
7965;SDS011;4028;43.272;26.932;2024-01-30T01:55:10;16.47;;;12.40;;
7965;SDS011;4028;43.272;26.932;2024-01-30T01:57:37;16.50;;;11.83;;
7965;SDS011;4028;43.272;26.932;2024-01-30T02:00:03;19.43;;;13.07;;
7965;SDS011;4028;43.272;26.932;2024-01-30T02:02:34;17.30;;;11.77;;
7965;SDS011;4028;43.272;26.932;2024-01-30T02:05:01;19.23;;;12.63;;
7965;SDS011;4028;43.272;26.932;2024-01-30T02:07:27;17.30;;;11.97;;
7965;SDS011;4028;43.272;26.932;2024-01-30T02:09:53;16.43;;;11.87;;
7965;SDS011;4028;43.272;26.932;2024-01-30T02:12:19;17.40;;;10.77;;
7965;SDS011;4028;43.272;26.932;2024-01-30T02:14:45;19.20;;;11.90;;
7965;SDS011;4028;43.272;26.932;2024-01-30T02:17:12;17.73;;;12.73;;
7965;SDS011;4028;43.272;26.932;2024-01-30T02:19:38;17.00;;;12.00;;
7965;SDS011;4028;43.272;26.932;2024-01-30T02:22:04;19.40;;;13.13;;
7965;SDS011;4028;43.272;26.932;2024-01-30T02:24:30;19.07;;;12.53;;
7965;SDS011;4028;43.272;26.932;2024-01-30T02:26:55;18.27;;;13.00;;
7965;SDS011;4028;43.272;26.932;2024-01-30T02:29:21;18.20;;;13.47;;
7965;SDS011;4028;43.272;26.932;2024-01-30T02:31:47;20.27;;;12.93;;
7965;SDS011;4028;43.272;26.932;2024-01-30T02:34:12;21.00;;;12.10;;
7965;SDS011;4028;43.272;26.932;2024-01-30T02:36:38;19.03;;;12.53;;
7965;SDS011;4028;43.272;26.932;2024-01-30T02:39:04;18.50;;;12.47;;
7965;SDS011;4028;43.272;26.932;2024-01-30T02:41:30;19.50;;;12.70;;
7965;SDS011;4028;43.272;26.932;2024-01-30T02:43:55;18.23;;;11.87;;
7965;SDS011;4028;43.272;26.932;2024-01-30T02:46:21;19.37;;;12.27;;
7965;SDS011;4028;43.272;26.932;2024-01-30T02:48:47;18.40;;;12.97;;
7965;SDS011;4028;43.272;26.932;2024-01-30T02:51:12;19.27;;;12.43;;
7965;SDS011;4028;43.272;26.932;2024-01-30T02:53:37;18.40;;;12.13;;
7965;SDS011;4028;43.272;26.932;2024-01-30T02:56:03;19.95;;;13.40;;
7965;SDS011;4028;43.272;26.932;2024-01-30T02:58:30;20.10;;;11.37;;
7965;SDS011;4028;43.272;26.932;2024-01-30T03:00:56;16.53;;;11.50;;
7965;SDS011;4028;43.272;26.932;2024-01-30T03:03:21;17.77;;;11.97;;
7965;SDS011;4028;43.272;26.932;2024-01-30T03:05:47;20.03;;;12.70;;
7965;SDS011;4028;43.272;26.932;2024-01-30T03:08:13;19.73;;;12.23;;
7965;SDS011;4028;43.272;26.932;2024-01-30T03:10:38;18.00;;;12.33;;
7965;SDS011;4028;43.272;26.932;2024-01-30T03:13:04;18.17;;;12.10;;
7965;SDS011;4028;43.272;26.932;2024-01-30T03:15:29;17.93;;;12.27;;
7965;SDS011;4028;43.272;26.932;2024-01-30T03:17:55;20.07;;;12.93;;
7965;SDS011;4028;43.272;26.932;2024-01-30T03:20:20;18.07;;;11.97;;
7965;SDS011;4028;43.272;26.932;2024-01-30T03:22:45;15.93;;;11.07;;
7965;SDS011;4028;43.272;26.932;2024-01-30T03:25:11;18.90;;;13.20;;
7965;SDS011;4028;43.272;26.932;2024-01-30T03:27:36;15.67;;;11.70;;
7965;SDS011;4028;43.272;26.932;2024-01-30T03:30:02;16.73;;;11.77;;
7965;SDS011;4028;43.272;26.932;2024-01-30T03:32:28;19.75;;;13.00;;
7965;SDS011;4028;43.272;26.932;2024-01-30T03:34:53;17.77;;;13.27;;
7965;SDS011;4028;43.272;26.932;2024-01-30T03:37:19;19.23;;;12.83;;
7965;SDS011;4028;43.272;26.932;2024-01-30T03:39:44;20.27;;;12.53;;
7965;SDS011;4028;43.272;26.932;2024-01-30T03:42:10;17.40;;;12.00;;
7965;SDS011;4028;43.272;26.932;2024-01-30T03:44:35;17.73;;;12.20;;
7965;SDS011;4028;43.272;26.932;2024-01-30T03:47:00;19.77;;;12.37;;
7965;SDS011;4028;43.272;26.932;2024-01-30T03:49:26;19.27;;;13.00;;
7965;SDS011;4028;43.272;26.932;2024-01-30T03:51:51;17.80;;;12.80;;
7965;SDS011;4028;43.272;26.932;2024-01-30T03:54:17;17.37;;;12.93;;
7965;SDS011;4028;43.272;26.932;2024-01-30T03:56:42;18.00;;;12.93;;
7965;SDS011;4028;43.272;26.932;2024-01-30T03:59:08;17.47;;;12.10;;
7965;SDS011;4028;43.272;26.932;2024-01-30T04:01:33;18.05;;;11.05;;
7965;SDS011;4028;43.272;26.932;2024-01-30T04:03:59;18.00;;;12.33;;
7965;SDS011;4028;43.272;26.932;2024-01-30T04:06:24;19.90;;;13.00;;
7965;SDS011;4028;43.272;26.932;2024-01-30T04:08:50;15.63;;;11.90;;
7965;SDS011;4028;43.272;26.932;2024-01-30T04:11:17;18.23;;;12.50;;
7965;SDS011;4028;43.272;26.932;2024-01-30T04:13:44;18.10;;;11.63;;
7965;SDS011;4028;43.272;26.932;2024-01-30T04:16:18;20.37;;;12.93;;
7965;SDS011;4028;43.272;26.932;2024-01-30T04:18:47;17.20;;;12.37;;
7965;SDS011;4028;43.272;26.932;2024-01-30T04:21:13;16.77;;;10.77;;
7965;SDS011;4028;43.272;26.932;2024-01-30T04:23:39;16.57;;;11.30;;
7965;SDS011;4028;43.272;26.932;2024-01-30T04:26:05;17.00;;;11.70;;
7965;SDS011;4028;43.272;26.932;2024-01-30T04:28:31;18.80;;;12.23;;
7965;SDS011;4028;43.272;26.932;2024-01-30T04:30:56;15.67;;;11.00;;
7965;SDS011;4028;43.272;26.932;2024-01-30T04:33:22;19.23;;;12.17;;
7965;SDS011;4028;43.272;26.932;2024-01-30T04:35:47;18.93;;;12.10;;
7965;SDS011;4028;43.272;26.932;2024-01-30T04:38:13;17.07;;;11.90;;
7965;SDS011;4028;43.272;26.932;2024-01-30T04:40:39;17.93;;;12.77;;
7965;SDS011;4028;43.272;26.932;2024-01-30T04:43:05;18.60;;;13.33;;
7965;SDS011;4028;43.272;26.932;2024-01-30T04:45:31;20.33;;;12.40;;
7965;SDS011;4028;43.272;26.932;2024-01-30T04:47:57;20.30;;;12.90;;
7965;SDS011;4028;43.272;26.932;2024-01-30T04:50:22;15.40;;;10.70;;
7965;SDS011;4028;43.272;26.932;2024-01-30T04:52:48;18.33;;;12.30;;
7965;SDS011;4028;43.272;26.932;2024-01-30T04:55:14;15.97;;;10.23;;
7965;SDS011;4028;43.272;26.932;2024-01-30T04:57:40;21.90;;;12.43;;
7965;SDS011;4028;43.272;26.932;2024-01-30T05:00:05;17.63;;;11.97;;
7965;SDS011;4028;43.272;26.932;2024-01-30T05:02:31;17.50;;;11.00;;
7965;SDS011;4028;43.272;26.932;2024-01-30T05:04:57;18.37;;;12.37;;
7965;SDS011;4028;43.272;26.932;2024-01-30T05:07:24;17.47;;;11.20;;
7965;SDS011;4028;43.272;26.932;2024-01-30T05:09:50;19.63;;;11.43;;
7965;SDS011;4028;43.272;26.932;2024-01-30T05:12:15;21.70;;;13.40;;
7965;SDS011;4028;43.272;26.932;2024-01-30T05:14:41;15.27;;;11.70;;
7965;SDS011;4028;43.272;26.932;2024-01-30T05:17:06;18.73;;;13.10;;
7965;SDS011;4028;43.272;26.932;2024-01-30T05:19:34;19.20;;;11.90;;
7965;SDS011;4028;43.272;26.932;2024-01-30T05:21:59;17.83;;;10.87;;
7965;SDS011;4028;43.272;26.932;2024-01-30T05:24:25;17.57;;;12.47;;
7965;SDS011;4028;43.272;26.932;2024-01-30T05:26:50;18.87;;;12.87;;
7965;SDS011;4028;43.272;26.932;2024-01-30T05:29:16;16.30;;;11.40;;
7965;SDS011;4028;43.272;26.932;2024-01-30T05:31:42;17.87;;;11.47;;
7965;SDS011;4028;43.272;26.932;2024-01-30T05:34:10;19.90;;;13.13;;
7965;SDS011;4028;43.272;26.932;2024-01-30T05:36:35;18.20;;;13.03;;
7965;SDS011;4028;43.272;26.932;2024-01-30T05:39:01;19.30;;;12.80;;
7965;SDS011;4028;43.272;26.932;2024-01-30T05:41:26;18.93;;;12.33;;
7965;SDS011;4028;43.272;26.932;2024-01-30T05:43:52;19.27;;;13.83;;
7965;SDS011;4028;43.272;26.932;2024-01-30T05:46:18;15.10;;;10.87;;
7965;SDS011;4028;43.272;26.932;2024-01-30T05:48:43;20.50;;;13.20;;
7965;SDS011;4028;43.272;26.932;2024-01-30T05:51:09;17.77;;;12.80;;
7965;SDS011;4028;43.272;26.932;2024-01-30T05:53:34;21.10;;;12.57;;
7965;SDS011;4028;43.272;26.932;2024-01-30T05:56:03;19.77;;;12.17;;
7965;SDS011;4028;43.272;26.932;2024-01-30T05:58:29;18.43;;;13.80;;
7965;SDS011;4028;43.272;26.932;2024-01-30T06:00:54;19.37;;;13.70;;
7965;SDS011;4028;43.272;26.932;2024-01-30T06:03:19;20.87;;;14.00;;
7965;SDS011;4028;43.272;26.932;2024-01-30T06:05:45;22.57;;;14.20;;
7965;SDS011;4028;43.272;26.932;2024-01-30T06:08:11;18.47;;;12.00;;
7965;SDS011;4028;43.272;26.932;2024-01-30T06:10:37;17.93;;;13.03;;
7965;SDS011;4028;43.272;26.932;2024-01-30T06:13:02;23.17;;;16.40;;
7965;SDS011;4028;43.272;26.932;2024-01-30T06:15:28;18.40;;;13.80;;
7965;SDS011;4028;43.272;26.932;2024-01-30T06:17:54;20.40;;;12.70;;
7965;SDS011;4028;43.272;26.932;2024-01-30T06:20:20;19.10;;;12.60;;
7965;SDS011;4028;43.272;26.932;2024-01-30T06:22:46;18.60;;;13.00;;
7965;SDS011;4028;43.272;26.932;2024-01-30T06:25:11;19.10;;;12.30;;
7965;SDS011;4028;43.272;26.932;2024-01-30T06:27:37;20.43;;;12.67;;
7965;SDS011;4028;43.272;26.932;2024-01-30T06:30:03;17.20;;;12.83;;
7965;SDS011;4028;43.272;26.932;2024-01-30T06:32:29;18.37;;;12.83;;
7965;SDS011;4028;43.272;26.932;2024-01-30T06:34:59;21.23;;;12.23;;
7965;SDS011;4028;43.272;26.932;2024-01-30T06:37:25;18.77;;;13.03;;
7965;SDS011;4028;43.272;26.932;2024-01-30T06:39:50;17.50;;;12.00;;
7965;SDS011;4028;43.272;26.932;2024-01-30T06:42:17;22.57;;;14.27;;
7965;SDS011;4028;43.272;26.932;2024-01-30T06:44:43;25.47;;;15.23;;
7965;SDS011;4028;43.272;26.932;2024-01-30T06:47:08;22.83;;;14.70;;
7965;SDS011;4028;43.272;26.932;2024-01-30T06:49:33;21.80;;;14.33;;
7965;SDS011;4028;43.272;26.932;2024-01-30T06:51:59;18.13;;;12.83;;
7965;SDS011;4028;43.272;26.932;2024-01-30T06:54:25;19.73;;;13.93;;
7965;SDS011;4028;43.272;26.932;2024-01-30T06:56:50;20.77;;;13.60;;
7965;SDS011;4028;43.272;26.932;2024-01-30T06:59:16;19.07;;;13.07;;
7965;SDS011;4028;43.272;26.932;2024-01-30T07:01:41;22.57;;;14.60;;
7965;SDS011;4028;43.272;26.932;2024-01-30T07:04:07;19.87;;;13.83;;
7965;SDS011;4028;43.272;26.932;2024-01-30T07:06:32;17.87;;;13.40;;
7965;SDS011;4028;43.272;26.932;2024-01-30T07:08:58;21.50;;;14.27;;
7965;SDS011;4028;43.272;26.932;2024-01-30T07:11:23;19.67;;;13.27;;
7965;SDS011;4028;43.272;26.932;2024-01-30T07:13:51;22.60;;;14.55;;
7965;SDS011;4028;43.272;26.932;2024-01-30T07:16:17;22.37;;;14.63;;
7965;SDS011;4028;43.272;26.932;2024-01-30T07:18:43;24.07;;;16.47;;
7965;SDS011;4028;43.272;26.932;2024-01-30T07:21:09;28.20;;;16.63;;
7965;SDS011;4028;43.272;26.932;2024-01-30T07:23:35;21.33;;;15.43;;
7965;SDS011;4028;43.272;26.932;2024-01-30T07:26:04;22.27;;;15.20;;
7965;SDS011;4028;43.272;26.932;2024-01-30T07:28:33;20.77;;;14.27;;
7965;SDS011;4028;43.272;26.932;2024-01-30T07:30:59;25.67;;;14.70;;
7965;SDS011;4028;43.272;26.932;2024-01-30T07:33:25;20.33;;;14.40;;
7965;SDS011;4028;43.272;26.932;2024-01-30T07:35:52;18.83;;;13.50;;
7965;SDS011;4028;43.272;26.932;2024-01-30T07:38:18;22.87;;;14.27;;
7965;SDS011;4028;43.272;26.932;2024-01-30T07:40:44;20.93;;;15.07;;
7965;SDS011;4028;43.272;26.932;2024-01-30T07:43:10;23.00;;;15.80;;
7965;SDS011;4028;43.272;26.932;2024-01-30T07:45:35;19.80;;;13.93;;
7965;SDS011;4028;43.272;26.932;2024-01-30T07:48:02;19.73;;;14.13;;
7965;SDS011;4028;43.272;26.932;2024-01-30T07:50:28;20.17;;;12.87;;
7965;SDS011;4028;43.272;26.932;2024-01-30T07:52:53;17.90;;;12.90;;
7965;SDS011;4028;43.272;26.932;2024-01-30T07:55:20;18.60;;;12.57;;
7965;SDS011;4028;43.272;26.932;2024-01-30T07:57:50;19.83;;;12.77;;
7965;SDS011;4028;43.272;26.932;2024-01-30T08:00:17;18.93;;;13.23;;
7965;SDS011;4028;43.272;26.932;2024-01-30T08:02:44;16.73;;;11.63;;
7965;SDS011;4028;43.272;26.932;2024-01-30T08:05:09;17.37;;;11.63;;
7965;SDS011;4028;43.272;26.932;2024-01-30T08:07:36;21.00;;;13.55;;
7965;SDS011;4028;43.272;26.932;2024-01-30T08:10:02;19.83;;;13.50;;
7965;SDS011;4028;43.272;26.932;2024-01-30T08:12:28;18.73;;;11.60;;
7965;SDS011;4028;43.272;26.932;2024-01-30T08:14:54;17.60;;;13.10;;
7965;SDS011;4028;43.272;26.932;2024-01-30T08:17:19;19.17;;;13.00;;
7965;SDS011;4028;43.272;26.932;2024-01-30T08:19:45;20.67;;;12.90;;
7965;SDS011;4028;43.272;26.932;2024-01-30T08:22:11;17.77;;;12.10;;
7965;SDS011;4028;43.272;26.932;2024-01-30T08:24:37;18.30;;;11.90;;
7965;SDS011;4028;43.272;26.932;2024-01-30T08:27:02;17.30;;;12.03;;
7965;SDS011;4028;43.272;26.932;2024-01-30T08:29:30;17.97;;;12.67;;
7965;SDS011;4028;43.272;26.932;2024-01-30T08:31:55;19.23;;;12.17;;
7965;SDS011;4028;43.272;26.932;2024-01-30T08:34:21;17.57;;;11.37;;
7965;SDS011;4028;43.272;26.932;2024-01-30T08:36:46;18.20;;;12.33;;
7965;SDS011;4028;43.272;26.932;2024-01-30T08:39:13;18.57;;;11.37;;
7965;SDS011;4028;43.272;26.932;2024-01-30T08:41:38;16.50;;;11.07;;
7965;SDS011;4028;43.272;26.932;2024-01-30T08:44:04;16.10;;;11.87;;
7965;SDS011;4028;43.272;26.932;2024-01-30T08:46:29;11.83;;;6.63;;
7965;SDS011;4028;43.272;26.932;2024-01-30T08:48:55;15.87;;;11.73;;
7965;SDS011;4028;43.272;26.932;2024-01-30T08:51:21;16.63;;;11.13;;
7965;SDS011;4028;43.272;26.932;2024-01-30T08:53:47;18.17;;;11.87;;
7965;SDS011;4028;43.272;26.932;2024-01-30T08:56:12;18.37;;;12.23;;
7965;SDS011;4028;43.272;26.932;2024-01-30T08:58:38;16.80;;;12.10;;
7965;SDS011;4028;43.272;26.932;2024-01-30T09:01:04;20.40;;;12.90;;
7965;SDS011;4028;43.272;26.932;2024-01-30T09:03:31;18.73;;;11.43;;
7965;SDS011;4028;43.272;26.932;2024-01-30T09:05:56;16.53;;;11.33;;
7965;SDS011;4028;43.272;26.932;2024-01-30T09:08:22;19.37;;;12.17;;
7965;SDS011;4028;43.272;26.932;2024-01-30T09:10:47;15.93;;;11.67;;
7965;SDS011;4028;43.272;26.932;2024-01-30T09:13:14;18.40;;;11.75;;
7965;SDS011;4028;43.272;26.932;2024-01-30T09:15:40;15.27;;;10.93;;
7965;SDS011;4028;43.272;26.932;2024-01-30T09:18:06;17.73;;;11.60;;
7965;SDS011;4028;43.272;26.932;2024-01-30T09:20:32;19.07;;;13.00;;
7965;SDS011;4028;43.272;26.932;2024-01-30T09:22:58;22.27;;;12.27;;
7965;SDS011;4028;43.272;26.932;2024-01-30T09:25:23;15.87;;;11.40;;
7965;SDS011;4028;43.272;26.932;2024-01-30T09:27:49;19.47;;;12.90;;
7965;SDS011;4028;43.272;26.932;2024-01-30T09:30:14;20.17;;;12.67;;
7965;SDS011;4028;43.272;26.932;2024-01-30T09:32:40;17.20;;;10.47;;
7965;SDS011;4028;43.272;26.932;2024-01-30T09:35:06;14.63;;;9.37;;
7965;SDS011;4028;43.272;26.932;2024-01-30T09:37:31;13.97;;;9.10;;
7965;SDS011;4028;43.272;26.932;2024-01-30T09:39:57;15.73;;;10.83;;
7965;SDS011;4028;43.272;26.932;2024-01-30T09:42:33;17.30;;;11.00;;
7965;SDS011;4028;43.272;26.932;2024-01-30T09:45:01;14.60;;;10.13;;
7965;SDS011;4028;43.272;26.932;2024-01-30T09:47:30;20.00;;;11.90;;
7965;SDS011;4028;43.272;26.932;2024-01-30T09:49:57;14.77;;;10.77;;
7965;SDS011;4028;43.272;26.932;2024-01-30T09:52:23;15.00;;;9.80;;
7965;SDS011;4028;43.272;26.932;2024-01-30T09:54:50;16.17;;;9.77;;
7965;SDS011;4028;43.272;26.932;2024-01-30T09:57:17;13.43;;;9.90;;
7965;SDS011;4028;43.272;26.932;2024-01-30T09:59:43;13.63;;;9.07;;
7965;SDS011;4028;43.272;26.932;2024-01-30T10:02:09;12.93;;;9.00;;
7965;SDS011;4028;43.272;26.932;2024-01-30T10:04:35;12.07;;;8.30;;
7965;SDS011;4028;43.272;26.932;2024-01-30T10:07:03;13.37;;;7.73;;
7965;SDS011;4028;43.272;26.932;2024-01-30T10:09:31;15.10;;;9.87;;
7965;SDS011;4028;43.272;26.932;2024-01-30T10:11:58;12.17;;;8.47;;
7965;SDS011;4028;43.272;26.932;2024-01-30T10:14:24;13.17;;;8.33;;
7965;SDS011;4028;43.272;26.932;2024-01-30T10:16:50;13.80;;;8.60;;
7965;SDS011;4028;43.272;26.932;2024-01-30T10:19:16;9.87;;;7.80;;
7965;SDS011;4028;43.272;26.932;2024-01-30T10:21:41;11.17;;;7.87;;
7965;SDS011;4028;43.272;26.932;2024-01-30T10:24:07;12.37;;;7.80;;
7965;SDS011;4028;43.272;26.932;2024-01-30T10:26:32;8.53;;;7.03;;
7965;SDS011;4028;43.272;26.932;2024-01-30T10:28:59;11.53;;;7.07;;
7965;SDS011;4028;43.272;26.932;2024-01-30T10:31:25;11.17;;;6.97;;
7965;SDS011;4028;43.272;26.932;2024-01-30T10:33:50;10.73;;;6.10;;
7965;SDS011;4028;43.272;26.932;2024-01-30T10:36:16;10.90;;;7.60;;
7965;SDS011;4028;43.272;26.932;2024-01-30T10:38:43;7.87;;;5.57;;
7965;SDS011;4028;43.272;26.932;2024-01-30T10:41:11;9.93;;;6.40;;
7965;SDS011;4028;43.272;26.932;2024-01-30T10:43:41;7.20;;;6.13;;
7965;SDS011;4028;43.272;26.932;2024-01-30T10:46:19;10.07;;;6.80;;
7965;SDS011;4028;43.272;26.932;2024-01-30T10:48:50;8.20;;;6.47;;
7965;SDS011;4028;43.272;26.932;2024-01-30T10:51:19;10.80;;;6.90;;
7965;SDS011;4028;43.272;26.932;2024-01-30T10:53:47;8.80;;;6.20;;
7965;SDS011;4028;43.272;26.932;2024-01-30T10:56:14;10.70;;;6.03;;
7965;SDS011;4028;43.272;26.932;2024-01-30T10:58:41;9.83;;;5.57;;
7965;SDS011;4028;43.272;26.932;2024-01-30T11:01:07;11.33;;;5.90;;
7965;SDS011;4028;43.272;26.932;2024-01-30T11:03:33;12.63;;;6.90;;
7965;SDS011;4028;43.272;26.932;2024-01-30T11:06:02;10.53;;;6.37;;
7965;SDS011;4028;43.272;26.932;2024-01-30T11:08:28;9.27;;;5.77;;
7965;SDS011;4028;43.272;26.932;2024-01-30T11:10:57;8.40;;;6.07;;
7965;SDS011;4028;43.272;26.932;2024-01-30T11:13:29;7.35;;;5.25;;
7965;SDS011;4028;43.272;26.932;2024-01-30T11:15:55;11.97;;;7.50;;
7965;SDS011;4028;43.272;26.932;2024-01-30T11:18:28;8.90;;;6.50;;
7965;SDS011;4028;43.272;26.932;2024-01-30T11:20:58;8.23;;;5.60;;
7965;SDS011;4028;43.272;26.932;2024-01-30T11:23:26;9.93;;;5.87;;
7965;SDS011;4028;43.272;26.932;2024-01-30T11:25:52;7.30;;;5.43;;
7965;SDS011;4028;43.272;26.932;2024-01-30T11:28:18;7.33;;;5.30;;
7965;SDS011;4028;43.272;26.932;2024-01-30T11:30:45;8.17;;;5.00;;
7965;SDS011;4028;43.272;26.932;2024-01-30T11:33:13;7.47;;;5.13;;
7965;SDS011;4028;43.272;26.932;2024-01-30T11:35:43;8.53;;;5.97;;
7965;SDS011;4028;43.272;26.932;2024-01-30T11:38:10;11.03;;;6.27;;
7965;SDS011;4028;43.272;26.932;2024-01-30T11:40:38;13.50;;;6.87;;
7965;SDS011;4028;43.272;26.932;2024-01-30T11:43:05;9.47;;;6.60;;
7965;SDS011;4028;43.272;26.932;2024-01-30T11:45:33;13.33;;;9.23;;
7965;SDS011;4028;43.272;26.932;2024-01-30T11:48:00;9.17;;;6.87;;
7965;SDS011;4028;43.272;26.932;2024-01-30T11:50:28;9.47;;;7.23;;
7965;SDS011;4028;43.272;26.932;2024-01-30T11:53:04;12.00;;;8.10;;
7965;SDS011;4028;43.272;26.932;2024-01-30T11:55:30;12.00;;;7.63;;
7965;SDS011;4028;43.272;26.932;2024-01-30T11:57:58;13.70;;;7.53;;
7965;SDS011;4028;43.272;26.932;2024-01-30T12:00:24;11.97;;;8.27;;
7965;SDS011;4028;43.272;26.932;2024-01-30T12:02:54;11.60;;;8.37;;
7965;SDS011;4028;43.272;26.932;2024-01-30T12:05:25;16.70;;;9.20;;
7965;SDS011;4028;43.272;26.932;2024-01-30T12:07:51;9.40;;;7.33;;
7965;SDS011;4028;43.272;26.932;2024-01-30T12:10:17;12.37;;;7.87;;
7965;SDS011;4028;43.272;26.932;2024-01-30T12:12:44;11.17;;;7.67;;
7965;SDS011;4028;43.272;26.932;2024-01-30T12:15:11;8.63;;;6.47;;
7965;SDS011;4028;43.272;26.932;2024-01-30T12:17:38;9.27;;;7.00;;
7965;SDS011;4028;43.272;26.932;2024-01-30T12:20:05;10.73;;;7.60;;
7965;SDS011;4028;43.272;26.932;2024-01-30T12:22:41;13.33;;;7.53;;
7965;SDS011;4028;43.272;26.932;2024-01-30T12:25:10;12.20;;;7.23;;
7965;SDS011;4028;43.272;26.932;2024-01-30T12:27:36;12.77;;;7.60;;
7965;SDS011;4028;43.272;26.932;2024-01-30T12:30:06;12.57;;;7.97;;
7965;SDS011;4028;43.272;26.932;2024-01-30T12:32:50;10.83;;;7.50;;
7965;SDS011;4028;43.272;26.932;2024-01-30T12:35:17;7.97;;;6.10;;
7965;SDS011;4028;43.272;26.932;2024-01-30T12:37:44;10.80;;;7.03;;
7965;SDS011;4028;43.272;26.932;2024-01-30T12:40:11;12.83;;;6.23;;
7965;SDS011;4028;43.272;26.932;2024-01-30T12:42:39;8.80;;;6.30;;
7965;SDS011;4028;43.272;26.932;2024-01-30T12:45:11;9.60;;;6.43;;
7965;SDS011;4028;43.272;26.932;2024-01-30T12:47:37;10.43;;;6.60;;
7965;SDS011;4028;43.272;26.932;2024-01-30T12:50:02;10.63;;;7.37;;
7965;SDS011;4028;43.272;26.932;2024-01-30T12:52:28;9.40;;;6.80;;
7965;SDS011;4028;43.272;26.932;2024-01-30T12:54:54;9.60;;;7.10;;
7965;SDS011;4028;43.272;26.932;2024-01-30T12:57:19;9.93;;;6.93;;
7965;SDS011;4028;43.272;26.932;2024-01-30T12:59:45;12.83;;;7.57;;
7965;SDS011;4028;43.272;26.932;2024-01-30T13:02:14;8.40;;;6.57;;
7965;SDS011;4028;43.272;26.932;2024-01-30T13:04:40;8.03;;;6.20;;
7965;SDS011;4028;43.272;26.932;2024-01-30T13:07:06;10.00;;;6.33;;
7965;SDS011;4028;43.272;26.932;2024-01-30T13:09:31;10.43;;;7.13;;
7965;SDS011;4028;43.272;26.932;2024-01-30T13:11:57;11.87;;;7.50;;
7965;SDS011;4028;43.272;26.932;2024-01-30T13:14:24;11.13;;;7.63;;
7965;SDS011;4028;43.272;26.932;2024-01-30T13:16:50;10.13;;;7.53;;
7965;SDS011;4028;43.272;26.932;2024-01-30T13:19:15;13.50;;;8.80;;
7965;SDS011;4028;43.272;26.932;2024-01-30T13:21:41;12.37;;;7.63;;
7965;SDS011;4028;43.272;26.932;2024-01-30T13:24:07;12.73;;;8.30;;
7965;SDS011;4028;43.272;26.932;2024-01-30T13:26:33;12.43;;;7.07;;
7965;SDS011;4028;43.272;26.932;2024-01-30T13:28:58;12.03;;;7.43;;
7965;SDS011;4028;43.272;26.932;2024-01-30T13:31:24;7.57;;;6.00;;
7965;SDS011;4028;43.272;26.932;2024-01-30T13:33:50;7.13;;;6.27;;
7965;SDS011;4028;43.272;26.932;2024-01-30T13:36:15;10.13;;;6.43;;
7965;SDS011;4028;43.272;26.932;2024-01-30T13:38:41;9.47;;;6.17;;
7965;SDS011;4028;43.272;26.932;2024-01-30T13:41:06;12.20;;;6.90;;
7965;SDS011;4028;43.272;26.932;2024-01-30T13:43:32;9.20;;;5.93;;
7965;SDS011;4028;43.272;26.932;2024-01-30T13:45:58;10.40;;;6.83;;
7965;SDS011;4028;43.272;26.932;2024-01-30T13:48:24;7.60;;;6.10;;
7965;SDS011;4028;43.272;26.932;2024-01-30T13:50:49;13.47;;;7.30;;
7965;SDS011;4028;43.272;26.932;2024-01-30T13:53:15;10.27;;;7.73;;
7965;SDS011;4028;43.272;26.932;2024-01-30T13:55:40;10.03;;;6.57;;
7965;SDS011;4028;43.272;26.932;2024-01-30T13:58:06;10.10;;;7.17;;
7965;SDS011;4028;43.272;26.932;2024-01-30T14:00:32;8.80;;;5.80;;
7965;SDS011;4028;43.272;26.932;2024-01-30T14:02:59;8.57;;;5.90;;
7965;SDS011;4028;43.272;26.932;2024-01-30T14:05:25;7.60;;;5.60;;
7965;SDS011;4028;43.272;26.932;2024-01-30T14:07:53;9.85;;;5.80;;
7965;SDS011;4028;43.272;26.932;2024-01-30T14:10:19;10.10;;;7.37;;
7965;SDS011;4028;43.272;26.932;2024-01-30T14:12:45;12.83;;;8.20;;
7965;SDS011;4028;43.272;26.932;2024-01-30T14:15:11;11.90;;;7.80;;
7965;SDS011;4028;43.272;26.932;2024-01-30T14:17:37;10.47;;;7.53;;
7965;SDS011;4028;43.272;26.932;2024-01-30T14:20:03;13.90;;;8.80;;
7965;SDS011;4028;43.272;26.932;2024-01-30T14:22:30;11.87;;;7.77;;
7965;SDS011;4028;43.272;26.932;2024-01-30T14:24:56;10.17;;;6.97;;
7965;SDS011;4028;43.272;26.932;2024-01-30T14:27:22;9.37;;;6.93;;
7965;SDS011;4028;43.272;26.932;2024-01-30T14:29:47;9.40;;;6.37;;
7965;SDS011;4028;43.272;26.932;2024-01-30T14:32:13;9.27;;;6.77;;
7965;SDS011;4028;43.272;26.932;2024-01-30T14:34:38;9.33;;;6.77;;